Arapaho — WCX9424 — position and weather

sailwx.info

Track history (hours):
 
Tides and Currents Weather Stations Pressure Air Temp Water Temp Dewpoint Dewpoint Depression Visibility Wind Speed Wind Dir Waves Ship Positions

Arapaho

Owner: SAUSE BROTHERS OCEAN TOWING CO INC, LONG BEACH, CA. More information available from US FCC via Universal Licensing System and Coast Guard Vessel Documentation Center.

Last reported at 2016-Dec-09 02:33 UTC. Time now 2016-Dec-10 01:07 UTC.
Position N 33°45' W 118°12'.

Length 37 m; draft 1.5 m.

Type: Towing. MMSI: 367004270.

Date/timePositionNaut miles runAvg speedWind from/ knotsBaromVisibWave heightAir tempDewpointWater temp
2016-Dec-09 02:33N 33°45' W 118°12'3 3.1
2016-Dec-09 01:32N 33°44' W 118°08'2 2.3
2016-Dec-09 00:33N 33°46' W 118°11'1 1.4
2016-Dec-08 23:33N 33°45' W 118°10'1 1.0
2016-Dec-08 22:34N 33°45' W 118°10'0 0.4
2016-Dec-08 21:33N 33°46' W 118°11'1 1.4
2016-Dec-08 20:32N 33°45' W 118°10'1 0.2
2016-Dec-08 18:10N 33°45' W 118°10'2 1.3
2016-Dec-08 16:30N 33°44' W 118°12'0 0.4
2016-Dec-08 15:32N 33°45' W 118°12'0 0.0
2016-Dec-08 14:33N 33°45' W 118°12'0 0.0
2016-Dec-08 13:33N 33°45' W 118°12'0 0.0
2016-Dec-08 12:34N 33°45' W 118°12'0 0.0
2016-Dec-08 10:32N 33°45' W 118°12'0 0.0
2016-Dec-08 09:17N 33°45' W 118°12'0 0.0
2016-Dec-08 08:29N 33°45' W 118°12'0 0.0
2016-Dec-08 07:31N 33°45' W 118°12'0 0.0
2016-Dec-08 06:16N 33°45' W 118°12'0 0.0
2016-Dec-07 08:28N 33°45' W 118°12'0 0.0
2016-Dec-06 02:11N 33°45' W 118°12'0 0.0
2016-Dec-06 01:23N 33°45' W 118°12'2 0.3
2016-Dec-05 20:29N 33°46' W 118°11'2 0.0
2016-Dec-04 04:19N 33°44' W 118°09'3 3.3
2016-Dec-04 03:21N 33°45' W 118°13'1 0.0
2016-Dec-02 13:10N 33°45' W 118°12'0 0.0
2016-Dec-02 12:31N 33°45' W 118°12'0 0.0
2016-Dec-02 11:33N 33°45' W 118°12'0 0.0
2016-Dec-02 09:05N 33°45' W 118°12'2 0.2
2016-Dec-01 21:26N 33°45' W 118°10'2 0.4
2016-Dec-01 15:29N 33°45' W 118°12'0 0.0
2016-Dec-01 14:12N 33°45' W 118°12'0 0.0
2016-Dec-01 12:17N 33°45' W 118°12'0 0.0
2016-Dec-01 09:23N 33°45' W 118°12'0 0.0
2016-Dec-01 08:23N 33°45' W 118°12'0 0.0
2016-Dec-01 07:23N 33°45' W 118°12'0 0.0
2016-Dec-01 06:33N 33°45' W 118°12'0 0.0
2016-Dec-01 05:32N 33°45' W 118°12'0 0.0
2016-Dec-01 04:32N 33°45' W 118°12'0 0.0
2016-Dec-01 03:33N 33°45' W 118°12'0 0.0
2016-Dec-01 02:33N 33°45' W 118°12'0 0.0
2016-Nov-30 15:26N 33°45' W 118°12'0 0.0
2016-Nov-30 14:32N 33°45' W 118°12'0 0.0
2016-Nov-30 06:23N 33°45' W 118°12'0 0.0
2016-Nov-30 05:22N 33°45' W 118°12'0 0.0
2016-Nov-30 03:30N 33°45' W 118°12'0 0.0
2016-Nov-30 02:33N 33°45' W 118°12'0 0.0
2016-Nov-30 01:33N 33°45' W 118°12'2 2.1
2016-Nov-30 00:31N 33°45' W 118°10'0 0.0
2016-Nov-29 23:33N 33°45' W 118°10'2 2.0
2016-Nov-29 22:27N 33°45' W 118°12'0 0.0
2016-Nov-29 21:33N 33°45' W 118°12'0 0.0
2016-Nov-29 20:31N 33°45' W 118°12'2 0.5
2016-Nov-29 17:24N 33°46' W 118°11'2 1.8
2016-Nov-29 16:33N 33°45' W 118°12'0 0.0
2016-Nov-29 15:33N 33°45' W 118°12'0 0.0
2016-Nov-29 14:33N 33°45' W 118°12'0 0.0
2016-Nov-29 13:33N 33°45' W 118°12'0 0.0
2016-Nov-29 12:33N 33°45' W 118°12'0 0.0
2016-Nov-29 06:08N 33°45' W 118°12'0 0.0
2016-Nov-29 05:33N 33°45' W 118°12'0 0.0
2016-Nov-29 04:09N 33°45' W 118°12'  
Track history (hours):
 
Tides and Currents Weather Stations Pressure Air Temp Water Temp Dewpoint Dewpoint Depression Visibility Wind Speed Wind Dir Waves Ship Positions

Arapaho

Owner: SAUSE BROTHERS OCEAN TOWING CO INC, LONG BEACH, CA. More information available from US FCC via Universal Licensing System and Coast Guard Vessel Documentation Center.

Last reported at 2016-Dec-09 02:33 UTC. Time now 2016-Dec-10 01:07 UTC.
Position N 33°45' W 118°12'.

Length 37 m; draft 1.5 m.

Type: Towing. MMSI: 367004270.

Date/timePositionNaut miles runAvg speedWind from/ knotsBaromVisibWave heightAir tempDewpointWater temp
2016-Dec-09 02:33N 33°45' W 118°12'3 3.1
2016-Dec-09 01:32N 33°44' W 118°08'2 2.3
2016-Dec-09 00:33N 33°46' W 118°11'1 1.4
2016-Dec-08 23:33N 33°45' W 118°10'1 1.0
2016-Dec-08 22:34N 33°45' W 118°10'0 0.4
2016-Dec-08 21:33N 33°46' W 118°11'1 1.4
2016-Dec-08 20:32N 33°45' W 118°10'1 0.2
2016-Dec-08 18:10N 33°45' W 118°10'2 1.3
2016-Dec-08 16:30N 33°44' W 118°12'0 0.4
2016-Dec-08 15:32N 33°45' W 118°12'0 0.0
2016-Dec-08 14:33N 33°45' W 118°12'0 0.0
2016-Dec-08 13:33N 33°45' W 118°12'0 0.0
2016-Dec-08 12:34N 33°45' W 118°12'0 0.0
2016-Dec-08 10:32N 33°45' W 118°12'0 0.0
2016-Dec-08 09:17N 33°45' W 118°12'0 0.0
2016-Dec-08 08:29N 33°45' W 118°12'0 0.0
2016-Dec-08 07:31N 33°45' W 118°12'0 0.0
2016-Dec-08 06:16N 33°45' W 118°12'0 0.0
2016-Dec-07 08:28N 33°45' W 118°12'0 0.0
2016-Dec-06 02:11N 33°45' W 118°12'0 0.0
2016-Dec-06 01:23N 33°45' W 118°12'2 0.3
2016-Dec-05 20:29N 33°46' W 118°11'2 0.0
2016-Dec-04 04:19N 33°44' W 118°09'3 3.3
2016-Dec-04 03:21N 33°45' W 118°13'1 0.0
2016-Dec-02 13:10N 33°45' W 118°12'0 0.0
2016-Dec-02 12:31N 33°45' W 118°12'0 0.0
2016-Dec-02 11:33N 33°45' W 118°12'0 0.0
2016-Dec-02 09:05N 33°45' W 118°12'2 0.2
2016-Dec-01 21:26N 33°45' W 118°10'2 0.4
2016-Dec-01 15:29N 33°45' W 118°12'0 0.0
2016-Dec-01 14:12N 33°45' W 118°12'0 0.0
2016-Dec-01 12:17N 33°45' W 118°12'0 0.0
2016-Dec-01 09:23N 33°45' W 118°12'0 0.0
2016-Dec-01 08:23N 33°45' W 118°12'0 0.0
2016-Dec-01 07:23N 33°45' W 118°12'0 0.0
2016-Dec-01 06:33N 33°45' W 118°12'0 0.0
2016-Dec-01 05:32N 33°45' W 118°12'0 0.0
2016-Dec-01 04:32N 33°45' W 118°12'0 0.0
2016-Dec-01 03:33N 33°45' W 118°12'0 0.0
2016-Dec-01 02:33N 33°45' W 118°12'0 0.0
2016-Nov-30 15:26N 33°45' W 118°12'0 0.0
2016-Nov-30 14:32N 33°45' W 118°12'0 0.0
2016-Nov-30 06:23N 33°45' W 118°12'0 0.0
2016-Nov-30 05:22N 33°45' W 118°12'0 0.0
2016-Nov-30 03:30N 33°45' W 118°12'0 0.0
2016-Nov-30 02:33N 33°45' W 118°12'0 0.0
2016-Nov-30 01:33N 33°45' W 118°12'2 2.1
2016-Nov-30 00:31N 33°45' W 118°10'0 0.0
2016-Nov-29 23:33N 33°45' W 118°10'2 2.0
2016-Nov-29 22:27N 33°45' W 118°12'0 0.0
2016-Nov-29 21:33N 33°45' W 118°12'0 0.0
2016-Nov-29 20:31N 33°45' W 118°12'2 0.5
2016-Nov-29 17:24N 33°46' W 118°11'2 1.8
2016-Nov-29 16:33N 33°45' W 118°12'0 0.0
2016-Nov-29 15:33N 33°45' W 118°12'0 0.0
2016-Nov-29 14:33N 33°45' W 118°12'0 0.0
2016-Nov-29 13:33N 33°45' W 118°12'0 0.0
2016-Nov-29 12:33N 33°45' W 118°12'0 0.0
2016-Nov-29 06:08N 33°45' W 118°12'0 0.0
2016-Nov-29 05:33N 33°45' W 118°12'0 0.0
2016-Nov-29 04:09N 33°45' W 118°12'  

Dump ship's entire track history